Time;durP1;ratioP1;P1;durP2;ratioP2;P2;SDS_P1;SDS_P2;PMS_P1;PMS_P2;Temp;Humidity;BMP_temperature;BMP_pressure;BME280_temperature;BME280_humidity;BME280_pressure;Samples;Min_cycle;Max_cycle;Signal;HPM_P1;HPM_P2
2021/01/26 00:04:45;;;;;;;1.38;0.80;;;10.80;63.60;;;;;;10285309;28;20380;-59
2021/01/26 00:09:46;;;;;;;1.63;0.73;;;10.70;63.60;;;;;;10273638;28;20058;-59
2021/01/26 00:14:47;;;;;;;1.17;0.90;;;10.80;63.60;;;;;;10271403;28;20023;-60
2021/01/26 00:19:47;;;;;;;1.48;0.75;;;10.80;63.50;;;;;;10269083;28;20027;-59
2021/01/26 00:24:48;;;;;;;1.38;0.68;;;10.80;63.50;;;;;;10273509;28;20102;-59
2021/01/26 00:29:49;;;;;;;2.15;1.17;;;10.80;63.50;;;;;;10290404;28;20109;-59
2021/01/26 00:34:49;;;;;;;1.52;0.77;;;10.70;63.50;;;;;;10295668;28;20037;-59
2021/01/26 00:39:50;;;;;;;1.02;0.70;;;10.70;63.60;;;;;;10267867;28;20102;-59
2021/01/26 00:44:51;;;;;;;1.00;0.68;;;10.70;63.50;;;;;;10273393;28;20031;-59
2021/01/26 00:49:51;;;;;;;1.58;0.90;;;10.70;63.50;;;;;;10262943;28;20023;-59
2021/01/26 00:54:52;;;;;;;2.10;0.80;;;10.70;63.50;;;;;;10282546;28;20103;-58
2021/01/26 00:59:53;;;;;;;1.17;0.50;;;10.70;63.50;;;;;;10286434;28;20367;-59
2021/01/26 01:04:54;;;;;;;0.95;0.60;;;10.70;63.60;;;;;;10282702;28;20051;-59
2021/01/26 01:09:54;;;;;;;0.85;0.60;;;10.70;63.60;;;;;;10272832;28;20106;-59
2021/01/26 01:14:55;;;;;;;1.15;0.55;;;10.70;63.60;;;;;;10266907;28;20127;-59
2021/01/26 01:19:56;;;;;;;1.88;0.60;;;10.70;63.50;;;;;;10272835;28;20034;-59
2021/01/26 01:24:56;;;;;;;1.23;0.57;;;10.70;63.50;;;;;;10255112;28;20373;-58
2021/01/26 01:29:57;;;;;;;1.45;0.77;;;10.70;63.50;;;;;;10282828;28;20019;-59
2021/01/26 01:34:58;;;;;;;1.08;0.77;;;10.70;63.50;;;;;;10272273;28;20552;-59
2021/01/26 01:39:58;;;;;;;2.10;0.73;;;10.70;63.50;;;;;;10266174;28;20599;-59
2021/01/26 01:44:59;;;;;;;1.73;0.95;;;10.70;63.50;;;;;;10271938;28;20031;-59
2021/01/26 01:50:04;;;;;;;1.13;0.70;;;10.70;63.50;;;;;;10266202;28;20027;-59
2021/01/26 01:55:33;;;;;;;1.73;0.80;;;10.70;63.60;;;;;;10287374;28;20033;-59
2021/01/26 02:00:35;;;;;;;1.30;0.70;;;10.70;63.50;;;;;;10270545;28;20045;-59
2021/01/26 02:05:36;;;;;;;1.67;0.98;;;10.70;63.60;;;;;;10274524;28;20404;-59
2021/01/26 02:10:37;;;;;;;1.50;0.60;;;10.70;63.50;;;;;;10260610;28;20046;-59
2021/01/26 02:15:37;;;;;;;1.13;0.60;;;10.60;63.60;;;;;;10263421;28;20176;-60
2021/01/26 02:21:10;;;;;;;1.08;0.43;;;10.70;63.60;;;;;;10288313;28;20369;-59
2021/01/26 02:26:58;;;;;;;1.40;0.45;;;10.60;63.50;;;;;;10287361;28;20039;-59
2021/01/26 02:32:30;;;;;;;1.65;0.70;;;10.60;63.60;;;;;;10276301;28;20035;-59
2021/01/26 02:38:01;;;;;;;1.50;0.50;;;10.60;63.60;;;;;;10283084;28;20102;-60
2021/01/26 02:43:04;;;;;;;;;;;10.60;63.60;;;;;;10276460;28;20023;-60
2021/01/26 02:48:46;;;;;;;1.33;0.52;;;10.60;63.60;;;;;;10257210;28;19910;-60
2021/01/26 02:54:16;;;;;;;0.95;0.50;;;10.60;63.60;;;;;;10251698;28;20047;-59
2021/01/26 02:59:29;;;;;;;0.77;0.47;;;10.60;63.60;;;;;;10298547;28;20027;-60
2021/01/26 03:04:38;;;;;;;1.23;0.50;;;10.60;63.60;;;;;;10272486;28;20460;-60
2021/01/26 03:09:46;;;;;;;0.73;0.50;;;10.60;63.60;;;;;;10295934;28;20114;-60
2021/01/26 03:15:09;;;;;;;1.08;0.55;;;10.60;63.60;;;;;;10258892;28;20039;-60
2021/01/26 03:20:21;;;;;;;1.58;0.50;;;10.60;63.60;;;;;;10263998;28;20035;-60
2021/01/26 03:25:26;;;;;;;1.98;0.60;;;10.60;63.60;;;;;;10282761;28;20062;-59
2021/01/26 03:30:38;;;;;;;0.82;0.60;;;10.60;63.60;;;;;;10289407;28;20146;-59
2021/01/26 03:35:41;;;;;;;1.67;0.50;;;10.60;64.20;;;;;;10288441;28;20113;-60
2021/01/26 03:40:42;;;;;;;0.82;0.45;;;10.50;63.60;;;;;;10290545;28;20119;-60
2021/01/26 03:45:43;;;;;;;0.80;0.40;;;10.50;63.60;;;;;;10271059;28;20039;-60
2021/01/26 03:51:04;;;;;;;1.48;0.70;;;10.50;63.60;;;;;;10277880;28;20035;-60
2021/01/26 03:56:43;;;;;;;0.50;0.40;;;10.50;63.50;;;;;;10256672;28;20555;-60
2021/01/26 04:02:09;;;;;;;1.92;0.40;;;10.50;63.60;;;;;;10273665;28;20034;-59
2021/01/26 04:07:36;;;;;;;1.38;0.50;;;10.50;63.50;;;;;;10274052;28;20047;-60
2021/01/26 04:12:40;;;;;;;1.50;0.50;;;10.50;63.50;;;;;;10263936;28;20488;-60
2021/01/26 04:17:47;;;;;;;1.33;0.50;;;10.50;63.60;;;;;;10264109;28;20114;-60
2021/01/26 04:22:58;;;;;;;1.27;0.50;;;10.50;63.50;;;;;;10293538;28;20362;-60
2021/01/26 04:28:01;;;;;;;0.95;0.55;;;10.50;63.50;;;;;;10307127;28;20110;-59
2021/01/26 04:33:06;;;;;;;2.22;0.50;;;10.50;63.50;;;;;;10303078;28;20028;-60
2021/01/26 04:38:07;;;;;;;0.80;0.40;;;10.50;63.50;;;;;;10279894;28;20081;-60
2021/01/26 04:43:35;;;;;;;0.63;0.47;;;10.50;63.50;;;;;;10281734;28;20542;-60
2021/01/26 04:49:19;;;;;;;0.88;0.40;;;10.50;63.60;;;;;;10275316;28;20069;-60
2021/01/26 04:54:49;;;;;;;0.80;0.70;;;10.50;63.50;;;;;;10278180;28;20090;-60
2021/01/26 05:00:20;;;;;;;0.90;0.40;;;10.50;63.50;;;;;;10279514;28;20042;-60
2021/01/26 05:05:24;;;;;;;0.60;0.47;;;10.50;63.60;;;;;;10280368;28;20070;-60
2021/01/26 05:10:47;;;;;;;2.28;0.40;;;10.50;63.50;;;;;;10282851;28;20498;-60
2021/01/26 05:16:16;;;;;;;1.20;0.50;;;10.50;63.60;;;;;;10269472;28;20370;-60
2021/01/26 05:21:37;;;;;;;0.85;0.50;;;10.40;63.50;;;;;;10260785;28;20043;-60
2021/01/26 05:26:37;;;;;;;0.73;0.35;;;10.50;63.60;;;;;;10279695;28;20380;-60
2021/01/26 05:31:45;;;;;;;0.85;0.40;;;10.40;63.50;;;;;;10288003;28;20030;-60
2021/01/26 05:36:47;;;;;;;0.63;0.45;;;10.40;63.60;;;;;;10297990;28;20026;-58
2021/01/26 05:41:48;;;;;;;1.30;0.55;;;10.50;63.60;;;;;;10295568;28;20199;-59
2021/01/26 05:46:49;;;;;;;0.60;0.38;;;10.40;63.60;;;;;;10275143;28;20023;-59
2021/01/26 05:51:53;;;;;;;0.95;0.45;;;10.40;63.60;;;;;;10266668;28;20027;-59
2021/01/26 05:56:56;;;;;;;0.93;0.50;;;10.40;63.60;;;;;;10266591;28;20035;-60
2021/01/26 06:02:19;;;;;;;1.60;0.45;;;10.40;63.60;;;;;;10277914;28;20059;-59
2021/01/26 06:07:23;;;;;;;0.88;0.50;;;10.40;63.60;;;;;;10287405;28;20476;-60
2021/01/26 06:12:27;;;;;;;1.23;0.60;;;10.50;63.70;;;;;;10269269;28;20035;-60
2021/01/26 06:17:34;;;;;;;0.88;0.65;;;10.40;63.60;;;;;;10260140;28;20027;-60
2021/01/26 06:22:35;;;;;;;1.00;0.50;;;10.40;63.60;;;;;;10255949;28;20031;-60
2021/01/26 06:27:48;;;;;;;1.25;0.40;;;10.40;63.70;;;;;;10290408;28;20023;-57
2021/01/26 06:33:46;;;;;;;0.65;0.50;;;10.40;63.60;;;;;;10285970;28;20455;-60
2021/01/26 06:39:31;;;;;;;1.63;0.73;;;10.40;63.60;;;;;;10276779;28;20027;-60
2021/01/26 06:45:22;;;;;;;0.80;0.40;;;10.40;63.60;;;;;;10277936;28;20049;-58
2021/01/26 06:51:10;;;;;;;0.80;0.40;;;10.40;63.70;;;;;;10276483;28;20368;-59
2021/01/26 06:56:29;;;;;;;1.27;0.57;;;10.40;63.70;;;;;;10257258;28;20035;-60
2021/01/26 07:02:06;;;;;;;0.80;0.40;;;10.30;63.60;;;;;;10286727;28;20073;-60
2021/01/26 07:07:20;;;;;;;1.05;0.45;;;10.30;63.60;;;;;;10275042;28;20059;-60
2021/01/26 07:12:44;;;;;;;1.23;0.40;;;10.30;63.70;;;;;;10259352;28;20031;-59
2021/01/26 07:18:32;;;;;;;1.02;0.50;;;10.30;63.50;;;;;;10254381;28;20506;-60
2021/01/26 07:24:03;;;;;;;0.45;0.40;;;10.40;63.70;;;;;;10257756;28;20050;-59
2021/01/26 07:29:41;;;;;;;0.75;0.38;;;10.30;63.60;;;;;;10283282;28;20130;-60
2021/01/26 07:35:29;;;;;;;0.93;0.45;;;10.30;63.70;;;;;;10227446;28;20084;-59
2021/01/26 07:40:50;;;;;;;1.90;0.50;;;10.30;63.60;;;;;;10275463;28;20442;-60
2021/01/26 07:46:12;;;;;;;0.82;0.50;;;10.30;63.70;;;;;;10273396;28;20035;-60
2021/01/26 07:51:21;;;;;;;1.90;0.45;;;10.30;63.70;;;;;;10280966;28;20031;-60
2021/01/26 07:56:31;;;;;;;0.85;0.52;;;10.30;63.70;;;;;;10282245;28;20027;-60
2021/01/26 08:01:43;;;;;;;0.80;0.30;;;10.30;63.70;;;;;;10310445;28;20070;-59
2021/01/26 08:06:59;;;;;;;0.98;0.40;;;10.30;63.70;;;;;;10275674;28;20043;-59
2021/01/26 08:12:18;;;;;;;1.08;0.47;;;10.30;63.70;;;;;;10278005;28;20110;-60
2021/01/26 08:17:34;;;;;;;1.17;0.50;;;10.30;63.70;;;;;;10274344;28;20114;-60
2021/01/26 08:22:43;;;;;;;1.25;0.50;;;10.30;63.70;;;;;;10257724;28;20047;-60
2021/01/26 08:27:43;;;;;;;1.15;0.50;;;10.30;63.70;;;;;;10280471;28;20034;-60
2021/01/26 08:32:47;;;;;;;1.73;0.50;;;10.30;63.70;;;;;;10287157;28;20038;-59
2021/01/26 08:37:53;;;;;;;0.68;0.30;;;10.30;63.80;;;;;;10280588;28;20039;-59
2021/01/26 08:43:02;;;;;;;0.65;0.30;;;10.30;63.80;;;;;;10287765;28;20026;-60
2021/01/26 08:48:09;;;;;;;0.65;0.35;;;10.30;63.80;;;;;;10267165;28;20034;-60
2021/01/26 08:53:22;;;;;;;0.98;0.50;;;10.30;64.00;;;;;;10264409;28;20060;-59
2021/01/26 08:58:45;;;;;;;1.00;0.40;;;10.30;63.90;;;;;;10280504;28;20483;-59
2021/01/26 09:03:45;;;;;;;1.48;0.50;;;10.30;64.20;;;;;;10298650;28;20071;-60
2021/01/26 09:08:49;;;;;;;0.88;0.40;;;10.30;64.10;;;;;;10271277;28;20126;-59
2021/01/26 09:13:50;;;;;;;0.50;0.30;;;10.30;64.30;;;;;;10265641;28;20035;-59
2021/01/26 09:19:25;;;;;;;0.80;0.30;;;10.30;64.20;;;;;;10281137;28;20035;-60
2021/01/26 09:24:25;;;;;;;0.50;0.30;;;10.30;64.10;;;;;;10279179;28;20432;-60
2021/01/26 09:29:28;;;;;;;1.08;0.60;;;10.30;64.20;;;;;;10303212;28;20037;-59
2021/01/26 09:34:29;;;;;;;0.50;0.30;;;10.30;64.20;;;;;;10270663;28;20031;-58
2021/01/26 09:39:29;;;;;;;0.88;0.28;;;10.30;64.30;;;;;;10275697;28;20036;-59
2021/01/26 09:44:30;;;;;;;0.43;0.30;;;10.30;64.30;;;;;;10278408;28;20043;-60
2021/01/26 09:49:31;;;;;;;0.60;0.22;;;10.30;64.30;;;;;;10267127;28;20031;-59
2021/01/26 09:54:36;;;;;;;0.95;0.47;;;10.30;64.30;;;;;;10260744;28;20038;-60
2021/01/26 09:59:38;;;;;;;1.00;0.30;;;10.30;64.30;;;;;;10277215;28;20037;-59
2021/01/26 10:04:42;;;;;;;0.90;0.30;;;10.30;64.30;;;;;;10280431;28;20031;-60
2021/01/26 10:09:42;;;;;;;0.50;0.20;;;10.30;64.40;;;;;;10282764;28;20070;-59
2021/01/26 10:15:13;;;;;;;1.17;0.20;;;10.30;64.40;;;;;;10272247;28;20113;-60
2021/01/26 10:20:25;;;;;;;0.50;0.35;;;10.30;64.40;;;;;;10258611;28;20043;-59
2021/01/26 10:25:26;;;;;;;0.55;0.20;;;10.30;64.40;;;;;;10275265;28;20399;-57
2021/01/26 10:30:27;;;;;;;0.55;0.25;;;10.30;64.90;;;;;;10303277;28;20042;-57
2021/01/26 10:35:36;;;;;;;0.52;0.30;;;10.30;64.30;;;;;;10302008;28;20034;-57
2021/01/26 10:40:36;;;;;;;1.15;0.50;;;10.30;64.30;;;;;;10271852;28;20058;-57
2021/01/26 10:45:55;;;;;;;1.15;0.55;;;10.30;64.30;;;;;;10266888;28;20113;-57
2021/01/26 10:51:15;;;;;;;0.52;0.20;;;10.30;64.40;;;;;;10283230;28;20023;-57
2021/01/26 10:56:16;;;;;;;0.47;0.30;;;10.30;64.40;;;;;;10281801;28;20031;-57
2021/01/26 11:01:22;;;;;;;0.73;0.20;;;10.30;64.30;;;;;;10277320;28;20043;-57
2021/01/26 11:06:24;;;;;;;0.77;0.50;;;10.40;64.30;;;;;;10254592;28;20055;-57
2021/01/26 11:11:28;;;;;;;0.57;0.30;;;10.40;64.30;;;;;;10281250;28;20027;-57
2021/01/26 11:16:29;;;;;;;1.17;0.40;;;10.40;64.30;;;;;;10300378;28;20449;-58
2021/01/26 11:21:31;;;;;;;0.80;0.30;;;10.40;64.40;;;;;;10281402;28;20045;-57
2021/01/26 11:26:31;;;;;;;0.50;0.28;;;10.40;64.30;;;;;;10279541;28;20034;-57
2021/01/26 11:31:32;;;;;;;1.00;0.30;;;10.40;64.30;;;;;;10274237;28;20039;-58
2021/01/26 11:36:33;;;;;;;0.60;0.30;;;10.40;64.30;;;;;;10267449;28;20063;-57
2021/01/26 11:41:34;;;;;;;0.77;0.30;;;10.40;64.30;;;;;;10273225;28;20027;-58
2021/01/26 11:46:34;;;;;;;0.55;0.20;;;10.40;64.30;;;;;;10273802;28;20015;-57
2021/01/26 11:51:35;;;;;;;0.80;0.30;;;10.40;64.30;;;;;;10262601;28;20028;-57
2021/01/26 11:56:36;;;;;;;1.15;0.50;;;10.40;64.20;;;;;;10283331;28;20027;-58
2021/01/26 12:01:37;;;;;;;0.60;0.28;;;10.40;64.20;;;;;;10291306;28;20031;-57
2021/01/26 12:06:38;;;;;;;0.65;0.40;;;10.40;64.20;;;;;;10280862;28;20161;-56
2021/01/26 12:11:38;;;;;;;0.40;0.40;;;10.40;64.40;;;;;;10268305;28;20042;-57
2021/01/26 12:16:39;;;;;;;1.90;0.25;;;10.40;64.40;;;;;;10274578;28;20023;-57
2021/01/26 12:21:40;;;;;;;0.32;0.20;;;10.40;64.40;;;;;;10275606;28;20023;-57
2021/01/26 12:26:40;;;;;;;0.52;0.45;;;10.40;64.40;;;;;;10289737;28;20046;-58
2021/01/26 12:31:42;;;;;;;1.02;0.32;;;10.40;64.20;;;;;;10283793;28;20146;-58
2021/01/26 12:36:43;;;;;;;1.23;0.22;;;10.40;64.30;;;;;;10278338;28;20114;-57
2021/01/26 12:41:44;;;;;;;0.52;0.30;;;10.40;64.30;;;;;;10281275;28;20489;-57
2021/01/26 12:46:44;;;;;;;0.85;0.40;;;10.40;64.30;;;;;;10280466;28;20027;-57
2021/01/26 12:51:45;;;;;;;0.20;0.20;;;10.40;64.40;;;;;;10268484;28;20111;-56
2021/01/26 12:56:46;;;;;;;1.02;0.30;;;10.40;64.50;;;;;;10261759;28;20106;-58
2021/01/26 13:01:47;;;;;;;0.50;0.25;;;10.40;64.40;;;;;;10268986;28;20031;-57
2021/01/26 13:06:48;;;;;;;0.20;0.20;;;10.40;64.40;;;;;;10278627;28;20751;-56
2021/01/26 13:11:48;;;;;;;0.47;0.20;;;10.40;64.40;;;;;;10273642;28;20075;-57
2021/01/26 13:16:49;;;;;;;0.32;0.20;;;10.40;64.50;;;;;;10267996;28;20106;-57
2021/01/26 13:21:51;;;;;;;0.75;0.52;;;10.40;64.50;;;;;;10262107;28;20035;-57
2021/01/26 13:26:51;;;;;;;0.20;0.20;;;10.40;64.40;;;;;;10263076;28;20054;-58
2021/01/26 13:31:52;;;;;;;0.38;0.20;;;10.40;64.40;;;;;;10291076;28;20122;-57
2021/01/26 13:36:53;;;;;;;0.20;0.20;;;10.40;64.40;;;;;;10302997;28;20023;-58
2021/01/26 13:41:56;;;;;;;0.20;0.20;;;10.40;64.40;;;;;;10303112;28;20114;-57
2021/01/26 13:46:58;;;;;;;0.85;0.20;;;10.40;64.30;;;;;;10276082;28;20027;-58
2021/01/26 13:51:59;;;;;;;0.45;0.30;;;10.40;64.30;;;;;;10265675;28;20038;-58
2021/01/26 13:57:00;;;;;;;0.85;0.20;;;10.40;64.30;;;;;;10259101;28;20497;-57
2021/01/26 14:02:00;;;;;;;0.28;0.20;;;10.40;64.30;;;;;;10266674;28;20110;-57
2021/01/26 14:07:01;;;;;;;0.20;0.20;;;10.40;64.30;;;;;;10281547;28;20040;-57
2021/01/26 14:12:02;;;;;;;0.85;0.30;;;10.40;64.30;;;;;;10270359;28;20119;-57
2021/01/26 14:17:03;;;;;;;0.32;0.20;;;10.40;64.30;;;;;;10264942;28;20031;-57
2021/01/26 14:22:03;;;;;;;0.50;0.20;;;10.40;64.40;;;;;;10259519;28;20100;-57
2021/01/26 14:27:04;;;;;;;0.93;0.30;;;10.40;65.10;;;;;;10273463;28;20162;-58
2021/01/26 14:32:09;;;;;;;1.55;0.30;;;10.40;64.50;;;;;;10287706;28;20053;-57
2021/01/26 14:37:09;;;;;;;0.65;0.40;;;10.40;64.40;;;;;;10303760;28;20046;-58
2021/01/26 14:42:11;;;;;;;1.15;0.38;;;10.40;64.40;;;;;;10281788;28;20037;-57
2021/01/26 14:47:12;;;;;;;0.88;0.40;;;10.40;64.40;;;;;;10269725;28;20039;-58
2021/01/26 14:52:13;;;;;;;1.02;0.20;;;10.40;64.40;;;;;;10271163;28;20468;-58
2021/01/26 14:57:14;;;;;;;0.15;0.10;;;10.40;64.40;;;;;;10256260;28;20361;-57
2021/01/26 15:02:14;;;;;;;0.57;0.20;;;10.40;64.40;;;;;;10276387;28;20031;-58
2021/01/26 15:07:15;;;;;;;0.70;0.40;;;10.40;64.40;;;;;;10278818;28;20420;-56
2021/01/26 15:12:16;;;;;;;0.95;0.20;;;10.40;64.40;;;;;;10274855;28;20032;-57
2021/01/26 15:17:17;;;;;;;0.77;0.30;;;10.40;64.50;;;;;;10263108;28;20089;-58
2021/01/26 15:22:17;;;;;;;0.68;0.28;;;10.40;64.50;;;;;;10267657;28;20036;-58
2021/01/26 15:27:18;;;;;;;0.65;0.22;;;10.40;64.40;;;;;;10262213;28;20114;-58
2021/01/26 15:32:19;;;;;;;0.65;0.20;;;10.30;64.50;;;;;;10287340;28;20031;-57
2021/01/26 15:37:20;;;;;;;1.05;0.40;;;10.30;64.40;;;;;;10284840;28;20105;-58
2021/01/26 15:42:21;;;;;;;0.57;0.40;;;10.30;64.50;;;;;;10279790;28;20031;-58
2021/01/26 15:47:22;;;;;;;1.02;0.40;;;10.30;64.50;;;;;;10273508;28;20039;-58
2021/01/26 15:52:22;;;;;;;0.35;0.22;;;10.30;64.40;;;;;;10262963;28;20059;-58
2021/01/26 15:57:24;;;;;;;0.57;0.30;;;10.30;64.40;;;;;;10266551;28;20369;-58
2021/01/26 16:02:24;;;;;;;2.58;0.50;;;10.30;64.40;;;;;;10265403;28;20035;-57
2021/01/26 16:07:25;;;;;;;0.68;0.30;;;10.30;64.40;;;;;;10271484;28;20043;-57
2021/01/26 16:12:26;;;;;;;2.95;0.40;;;10.30;64.30;;;;;;10297862;28;20106;-57
2021/01/26 16:17:27;;;;;;;0.25;0.20;;;10.30;64.30;;;;;;10274377;28;20038;-57
2021/01/26 16:22:27;;;;;;;0.63;0.30;;;10.30;64.30;;;;;;10263936;28;20366;-56
2021/01/26 16:27:28;;;;;;;1.23;0.20;;;10.30;64.30;;;;;;10269310;28;20094;-57
2021/01/26 16:32:29;;;;;;;1.05;0.35;;;10.30;64.30;;;;;;10309645;28;20033;-58
2021/01/26 16:37:29;;;;;;;0.82;0.30;;;10.30;64.30;;;;;;10285558;28;20030;-57
2021/01/26 16:42:30;;;;;;;0.30;0.20;;;10.30;64.40;;;;;;10285703;28;20161;-57
2021/01/26 16:47:31;;;;;;;1.00;0.20;;;10.30;64.30;;;;;;10284655;28;20034;-57
2021/01/26 16:52:31;;;;;;;0.40;0.30;;;10.30;64.40;;;;;;10267688;28;20114;-57
2021/01/26 16:57:33;;;;;;;0.57;0.30;;;10.30;64.30;;;;;;10260538;28;20031;-57
2021/01/26 17:02:34;;;;;;;0.45;0.38;;;10.30;64.30;;;;;;10270594;28;20496;-57
2021/01/26 17:07:35;;;;;;;0.20;0.20;;;10.30;64.40;;;;;;10275584;28;20114;-56
2021/01/26 17:12:36;;;;;;;1.00;0.30;;;10.30;64.30;;;;;;10272071;28;20027;-57
2021/01/26 17:17:37;;;;;;;0.77;0.20;;;10.30;64.30;;;;;;10266006;28;20110;-57
2021/01/26 17:22:37;;;;;;;0.60;0.43;;;10.20;64.30;;;;;;10260944;28;20392;-57
2021/01/26 17:27:39;;;;;;;0.75;0.35;;;10.30;64.40;;;;;;10268394;28;20058;-57
2021/01/26 17:32:39;;;;;;;1.05;0.20;;;10.20;64.30;;;;;;10289240;28;20065;-57
2021/01/26 17:37:41;;;;;;;0.77;0.30;;;10.20;64.30;;;;;;10283375;28;20039;-57
2021/01/26 17:42:42;;;;;;;0.57;0.43;;;10.20;64.30;;;;;;10282123;28;20133;-57
2021/01/26 17:47:43;;;;;;;0.30;0.22;;;10.20;64.30;;;;;;10282432;28;20023;-57
2021/01/26 17:52:44;;;;;;;1.33;0.50;;;10.20;64.20;;;;;;10273890;28;20480;-57
2021/01/26 17:57:44;;;;;;;0.35;0.20;;;10.20;64.20;;;;;;10261732;28;20038;-57
2021/01/26 18:02:45;;;;;;;1.13;0.30;;;10.20;64.20;;;;;;10269768;28;20026;-57
2021/01/26 18:07:46;;;;;;;0.40;0.20;;;10.20;64.30;;;;;;10278271;28;20043;-57
2021/01/26 18:12:47;;;;;;;0.95;0.52;;;10.20;64.20;;;;;;10294069;28;20039;-58
2021/01/26 18:17:48;;;;;;;0.65;0.30;;;10.20;64.30;;;;;;10266992;28;20027;-57
2021/01/26 18:22:50;;;;;;;0.68;0.30;;;10.20;64.30;;;;;;10279771;28;20039;-57
2021/01/26 18:27:51;;;;;;;0.90;0.40;;;10.20;64.20;;;;;;10254744;28;20384;-57
2021/01/26 18:32:53;;;;;;;0.55;0.32;;;10.20;64.30;;;;;;10287393;28;20274;-57
2021/01/26 18:37:55;;;;;;;0.40;0.25;;;10.20;64.20;;;;;;10282308;28;20053;-57
2021/01/26 18:42:56;;;;;;;0.40;0.20;;;10.20;64.20;;;;;;10280085;28;20035;-57
2021/01/26 18:47:57;;;;;;;1.13;0.40;;;10.20;64.20;;;;;;10274380;28;20502;-58
2021/01/26 18:52:58;;;;;;;0.40;0.30;;;10.20;64.20;;;;;;10263161;28;20467;-58
2021/01/26 18:57:58;;;;;;;1.10;0.40;;;10.20;64.20;;;;;;10258072;28;20057;-57
2021/01/26 19:03:00;;;;;;;0.28;0.28;;;10.20;64.20;;;;;;10267687;28;20038;-56
2021/01/26 19:08:01;;;;;;;0.85;0.30;;;10.20;64.20;;;;;;10274277;28;20043;-57
2021/01/26 19:13:02;;;;;;;0.70;0.50;;;10.20;64.20;;;;;;10268588;28;20411;-57
2021/01/26 19:18:03;;;;;;;0.52;0.40;;;10.20;64.20;;;;;;10269543;28;20050;-57
2021/01/26 19:23:04;;;;;;;0.57;0.20;;;10.20;64.20;;;;;;10265740;28;20085;-57
2021/01/26 19:28:05;;;;;;;0.30;0.30;;;10.20;64.20;;;;;;10266018;28;20110;-57
2021/01/26 19:33:05;;;;;;;0.47;0.30;;;10.20;64.20;;;;;;10284296;28;20039;-57
2021/01/26 19:38:06;;;;;;;1.02;0.40;;;10.20;64.20;;;;;;10277871;28;20077;-57
2021/01/26 19:43:08;;;;;;;0.80;0.50;;;10.20;64.20;;;;;;10281326;28;20032;-58
2021/01/26 19:48:09;;;;;;;1.70;0.40;;;10.10;64.10;;;;;;10278950;28;20392;-58
2021/01/26 19:53:10;;;;;;;1.45;0.63;;;10.10;64.20;;;;;;10292551;28;20035;-57
2021/01/26 19:58:10;;;;;;;0.93;0.52;;;10.10;64.20;;;;;;10274260;28;20400;-57
2021/01/26 20:03:14;;;;;;;0.68;0.30;;;10.10;64.10;;;;;;10290083;28;20129;-57
2021/01/26 20:08:15;;;;;;;0.80;0.40;;;10.10;64.10;;;;;;10304382;28;20053;-57
2021/01/26 20:13:17;;;;;;;1.45;0.30;;;10.10;64.10;;;;;;10272797;28;20506;-57
2021/01/26 20:18:17;;;;;;;1.00;0.40;;;10.10;64.10;;;;;;10267036;28;20396;-56
2021/01/26 20:23:19;;;;;;;0.82;0.40;;;10.10;64.10;;;;;;10260718;28;20041;-57
2021/01/26 20:28:19;;;;;;;0.40;0.30;;;10.10;64.20;;;;;;10286162;28;20038;-57
2021/01/26 20:33:20;;;;;;;0.50;0.40;;;10.10;64.20;;;;;;10288929;28;20158;-57
2021/01/26 20:38:22;;;;;;;1.38;0.68;;;10.10;64.10;;;;;;10281481;28;20505;-57
2021/01/26 20:43:25;;;;;;;0.93;0.40;;;10.10;64.10;;;;;;10298085;28;20053;-57
2021/01/26 20:48:26;;;;;;;0.90;0.60;;;10.10;64.10;;;;;;10277028;28;20443;-58
2021/01/26 20:53:26;;;;;;;0.93;0.47;;;10.10;64.20;;;;;;10265368;28;20113;-58
2021/01/26 20:58:27;;;;;;;0.57;0.38;;;10.10;64.10;;;;;;10259723;28;20109;-56
2021/01/26 21:03:28;;;;;;;2.45;0.70;;;10.10;64.10;;;;;;10276023;28;20535;-57
2021/01/26 21:08:28;;;;;;;0.95;0.40;;;10.10;64.10;;;;;;10275721;28;20134;-58
2021/01/26 21:13:29;;;;;;;1.13;0.57;;;10.10;64.10;;;;;;10270526;28;20488;-57
2021/01/26 21:18:30;;;;;;;0.77;0.40;;;10.10;64.10;;;;;;10265137;28;20031;-57
2021/01/26 21:23:30;;;;;;;1.05;0.65;;;10.10;64.10;;;;;;10259175;28;20122;-57
2021/01/26 21:28:31;;;;;;;0.70;0.50;;;10.10;64.10;;;;;;10273170;28;20468;-58
2021/01/26 21:33:32;;;;;;;1.25;0.70;;;10.10;64.10;;;;;;10286937;28;20440;-57
2021/01/26 21:38:33;;;;;;;1.00;0.40;;;10.10;64.10;;;;;;10281400;28;20459;-57
2021/01/26 21:43:34;;;;;;;1.35;0.50;;;10.10;64.10;;;;;;10280883;28;20491;-57
2021/01/26 21:48:34;;;;;;;1.35;0.63;;;10.10;64.10;;;;;;10274956;28;20074;-58
2021/01/26 21:53:35;;;;;;;1.23;0.50;;;10.10;64.50;;;;;;10297678;28;20499;-58
2021/01/26 21:58:36;;;;;;;1.90;0.60;;;10.10;64.10;;;;;;10256695;28;20114;-57
2021/01/26 22:03:36;;;;;;;1.80;0.60;;;10.00;64.00;;;;;;10274302;28;20387;-56
2021/01/26 22:08:37;;;;;;;0.93;0.60;;;10.00;64.00;;;;;;10273649;28;20090;-57
2021/01/26 22:13:38;;;;;;;1.55;0.60;;;10.10;64.10;;;;;;10268733;28;20558;-57
2021/01/26 22:18:39;;;;;;;1.50;0.95;;;10.10;64.10;;;;;;10262780;28;20059;-57
2021/01/26 22:23:39;;;;;;;1.42;0.50;;;10.00;64.00;;;;;;10256907;28;20081;-57
2021/01/26 22:28:40;;;;;;;1.30;0.73;;;10.00;64.10;;;;;;10272235;28;20118;-57
2021/01/26 22:33:40;;;;;;;1.00;0.73;;;10.00;64.00;;;;;;10285081;28;20035;-56
2021/01/26 22:38:41;;;;;;;1.48;0.80;;;10.00;64.00;;;;;;10279110;28;20073;-56
2021/01/26 22:43:42;;;;;;;1.10;0.50;;;10.00;64.00;;;;;;10283487;28;20030;-57
2021/01/26 22:48:44;;;;;;;0.90;0.60;;;10.00;64.00;;;;;;10272040;28;20110;-57
2021/01/26 22:53:44;;;;;;;1.73;0.57;;;10.10;64.00;;;;;;10269594;28;20030;-57
2021/01/26 22:58:46;;;;;;;1.30;0.70;;;10.00;64.00;;;;;;10255282;28;20447;-57
2021/01/26 23:03:46;;;;;;;2.10;0.70;;;10.00;64.00;;;;;;10271837;28;20032;-57
2021/01/26 23:08:47;;;;;;;1.42;0.77;;;10.00;64.00;;;;;;10277586;28;20043;-57
2021/01/26 23:13:48;;;;;;;1.98;0.98;;;10.00;64.00;;;;;;10273547;28;20039;-57
2021/01/26 23:18:48;;;;;;;1.23;0.80;;;10.00;64.00;;;;;;10269237;28;20042;-57
2021/01/26 23:23:49;;;;;;;2.10;0.75;;;10.00;64.00;;;;;;10263571;28;20106;-56
2021/01/26 23:28:50;;;;;;;0.90;0.50;;;10.00;64.00;;;;;;10279798;28;20110;-57
2021/01/26 23:33:50;;;;;;;1.67;0.80;;;10.00;64.00;;;;;;10291833;28;20117;-57
2021/01/26 23:38:51;;;;;;;1.92;0.90;;;10.00;64.00;;;;;;10292491;28;20054;-57
2021/01/26 23:43:52;;;;;;;1.17;0.88;;;10.00;64.00;;;;;;10290041;28;20035;-57
2021/01/26 23:48:53;;;;;;;1.08;0.75;;;10.00;64.00;;;;;;10278837;28;20106;-57
2021/01/26 23:53:53;;;;;;;1.55;0.70;;;10.00;64.10;;;;;;10267721;28;20420;-57
2021/01/26 23:58:54;;;;;;;1.58;0.98;;;10.00;64.10;;;;;;10272435;28;20110;-57
